createdAt,value
2023-05-14T00:00:40.254Z,1.65
2023-05-14T00:03:34.940Z,1.15
2023-05-14T00:06:29.496Z,1.08
2023-05-14T00:09:23.893Z,0.90
2023-05-14T00:12:18.056Z,1.10
2023-05-14T00:15:12.490Z,1.15
2023-05-14T00:18:08.505Z,1.25
2023-05-14T00:21:03.070Z,1.23
2023-05-14T00:23:57.746Z,1.08
2023-05-14T00:26:52.049Z,1.02
2023-05-14T00:29:47.138Z,1.23
2023-05-14T00:32:41.588Z,1.20
2023-05-14T00:35:37.369Z,1.20
2023-05-14T00:38:31.841Z,1.50
2023-05-14T00:41:26.560Z,1.30
2023-05-14T00:44:21.257Z,1.20
2023-05-14T00:47:16.009Z,1.20
2023-05-14T00:50:11.589Z,1.20
2023-05-14T00:53:11.353Z,1.00
2023-05-14T00:56:06.548Z,1.33
2023-05-14T00:59:00.969Z,1.30
2023-05-14T01:01:56.204Z,1.08
2023-05-14T01:04:51.140Z,1.10
2023-05-14T01:08:03.828Z,1.15
2023-05-14T01:11:09.476Z,1.02
2023-05-14T01:14:38.255Z,1.20
2023-05-14T01:20:31.490Z,1.25
2023-05-14T01:26:20.286Z,1.08
2023-05-14T01:29:24.414Z,0.95
2023-05-14T01:32:21.868Z,1.20
2023-05-14T01:35:17.343Z,1.10
2023-05-14T01:38:13.705Z,1.05
2023-05-14T01:41:08.326Z,1.37
2023-05-14T01:44:02.771Z,1.05
2023-05-14T01:46:57.189Z,0.82
2023-05-14T01:49:51.688Z,1.00
2023-05-14T01:52:46.272Z,1.00
2023-05-14T01:55:40.543Z,1.10
2023-05-14T01:58:34.850Z,1.10
2023-05-14T02:01:29.421Z,0.80
2023-05-14T02:04:23.715Z,0.98
2023-05-14T02:07:18.145Z,1.40
2023-05-14T02:10:12.732Z,1.35
2023-05-14T02:13:07.085Z,1.13
2023-05-14T02:16:01.553Z,1.50
2023-05-14T02:18:55.897Z,1.33
2023-05-14T02:21:50.868Z,1.35
2023-05-14T02:24:45.886Z,0.90
2023-05-14T02:27:40.438Z,1.10
2023-05-14T02:30:34.688Z,0.95
2023-05-14T02:33:29.408Z,1.02
2023-05-14T02:36:23.857Z,1.00
2023-05-14T02:39:18.061Z,1.10
2023-05-14T02:42:12.344Z,1.08
2023-05-14T02:45:07.041Z,0.90
2023-05-14T02:48:01.313Z,0.77
2023-05-14T02:50:55.670Z,1.00
2023-05-14T02:53:50.275Z,1.05
2023-05-14T02:56:44.642Z,0.80
2023-05-14T02:59:38.850Z,1.00
2023-05-14T03:02:33.719Z,1.00
2023-05-14T03:05:28.380Z,1.17
2023-05-14T03:08:22.568Z,1.10
2023-05-14T03:11:16.787Z,0.93
2023-05-14T03:14:10.994Z,0.80
2023-05-14T03:17:05.402Z,1.00
2023-05-14T03:19:59.861Z,1.00
2023-05-14T03:22:54.469Z,0.90
2023-05-14T03:25:48.691Z,1.10
2023-05-14T03:28:43.099Z,0.90
2023-05-14T03:31:37.332Z,0.93
2023-05-14T03:34:31.666Z,0.75
2023-05-14T03:37:25.887Z,1.10
2023-05-14T03:40:20.628Z,1.10
2023-05-14T03:43:15.072Z,1.08
2023-05-14T03:46:09.376Z,1.10
2023-05-14T03:49:05.068Z,0.90
2023-05-14T03:52:00.621Z,0.70
2023-05-14T03:54:54.837Z,0.88
2023-05-14T03:57:50.536Z,1.00
2023-05-14T04:00:45.177Z,1.08
2023-05-14T04:03:39.753Z,1.05
2023-05-14T04:06:34.683Z,0.80
2023-05-14T04:09:28.861Z,0.80
2023-05-14T04:12:23.075Z,1.00
2023-05-14T04:15:17.439Z,0.88
2023-05-14T04:18:11.770Z,0.70
2023-05-14T04:21:06.493Z,1.10
2023-05-14T04:24:00.818Z,0.75
2023-05-14T04:26:55.091Z,1.15
2023-05-14T04:29:52.561Z,0.90
2023-05-14T04:32:47.224Z,1.15
2023-05-14T04:35:41.542Z,0.85
2023-05-14T04:38:36.300Z,1.10
2023-05-14T04:41:30.640Z,0.90
2023-05-14T04:44:24.977Z,1.10
2023-05-14T04:47:20.106Z,1.02
2023-05-14T04:50:14.574Z,0.90
2023-05-14T04:53:09.149Z,0.90
2023-05-14T04:56:03.568Z,0.90
2023-05-14T04:58:58.163Z,1.23
2023-05-14T05:01:53.069Z,1.02
2023-05-14T05:04:48.455Z,0.90
2023-05-14T05:07:42.820Z,0.98
2023-05-14T05:10:37.261Z,0.80
2023-05-14T05:13:31.643Z,1.13
2023-05-14T05:16:26.034Z,2.45
2023-05-14T05:19:26.563Z,1.00
2023-05-14T05:22:27.068Z,1.10
2023-05-14T05:25:21.537Z,0.88
2023-05-14T05:28:16.115Z,0.90
2023-05-14T05:31:10.736Z,1.50
2023-05-14T05:34:05.523Z,0.95
2023-05-14T05:37:00.015Z,1.15
2023-05-14T05:39:55.232Z,1.10
2023-05-14T05:42:49.581Z,0.90
2023-05-14T05:45:44.066Z,1.00
2023-05-14T05:48:38.325Z,0.98
2023-05-14T05:51:33.087Z,1.25
2023-05-14T05:54:28.453Z,0.95
2023-05-14T05:57:25.694Z,0.95
2023-05-14T06:00:22.144Z,0.95
2023-05-14T06:03:17.226Z,0.93
2023-05-14T06:06:11.570Z,1.20
2023-05-14T06:09:08.331Z,1.00
2023-05-14T06:12:02.699Z,1.00
2023-05-14T06:14:59.077Z,0.80
2023-05-14T06:17:53.547Z,1.15
2023-05-14T06:20:48.215Z,0.90
2023-05-14T06:23:42.956Z,0.88
2023-05-14T06:26:37.312Z,0.98
2023-05-14T06:29:31.847Z,0.82
2023-05-14T06:32:26.015Z,0.93
2023-05-14T06:35:20.803Z,0.95
2023-05-14T06:38:15.280Z,0.65
2023-05-14T06:41:12.146Z,0.93
2023-05-14T06:44:06.552Z,0.82
2023-05-14T06:47:01.127Z,0.90
2023-05-14T06:49:55.317Z,0.90
2023-05-14T06:52:49.631Z,0.85
2023-05-14T06:55:44.251Z,1.10
2023-05-14T06:58:38.481Z,1.10
2023-05-14T07:01:32.900Z,1.05
2023-05-14T07:04:27.222Z,0.90
2023-05-14T07:07:22.525Z,1.00
2023-05-14T07:10:16.907Z,1.10
2023-05-14T07:13:11.144Z,1.17
2023-05-14T07:16:05.902Z,0.82
2023-05-14T07:19:00.869Z,1.05
2023-05-14T07:21:55.090Z,1.20
2023-05-14T07:24:49.368Z,1.20
2023-05-14T07:27:43.813Z,1.20
2023-05-14T07:30:38.057Z,1.13
2023-05-14T07:33:32.583Z,1.10
2023-05-14T07:36:26.916Z,1.13
2023-05-14T07:39:21.208Z,1.20
2023-05-14T07:42:22.067Z,1.10
2023-05-14T07:45:22.619Z,1.30
2023-05-14T07:48:17.299Z,1.25
2023-05-14T07:51:11.768Z,1.48
2023-05-14T07:54:06.422Z,1.60
2023-05-14T07:57:00.913Z,1.38
2023-05-14T07:59:55.235Z,1.20
2023-05-14T08:02:50.571Z,1.60
2023-05-14T08:05:44.868Z,1.70
2023-05-14T08:08:39.208Z,1.95
2023-05-14T08:11:33.619Z,2.33
2023-05-14T08:14:27.906Z,3.50
2023-05-14T08:17:22.112Z,4.80
2023-05-14T08:20:16.436Z,4.88
2023-05-14T08:23:10.745Z,3.08
2023-05-14T08:26:05.020Z,5.80
2023-05-14T08:28:59.268Z,7.78
2023-05-14T08:31:53.504Z,5.22
2023-05-14T08:34:47.722Z,4.10
2023-05-14T08:37:42.077Z,3.22
2023-05-14T08:40:36.470Z,2.90
2023-05-14T08:43:44.096Z,2.53
2023-05-14T08:46:39.902Z,2.70
2023-05-14T08:49:49.324Z,2.70
2023-05-14T08:52:43.761Z,2.65
2023-05-14T08:55:38.985Z,3.00
2023-05-14T08:58:33.238Z,2.55
2023-05-14T09:01:28.570Z,2.90
2023-05-14T09:04:25.352Z,3.03
2023-05-14T09:07:19.852Z,3.38
2023-05-14T09:10:14.327Z,3.55
2023-05-14T09:13:08.996Z,3.90
2023-05-14T09:16:03.725Z,4.25
2023-05-14T09:18:57.995Z,3.30
2023-05-14T09:21:52.961Z,4.07
2023-05-14T09:24:47.925Z,3.05
2023-05-14T09:27:42.108Z,3.22
2023-05-14T09:30:41.509Z,3.30
2023-05-14T09:33:35.683Z,3.92
2023-05-14T09:36:29.927Z,3.20
2023-05-14T09:39:25.738Z,3.97
2023-05-14T09:42:19.878Z,3.45
2023-05-14T09:45:14.468Z,3.78
2023-05-14T09:48:09.857Z,3.05
2023-05-14T09:51:04.867Z,3.83
2023-05-14T09:53:59.621Z,4.50
2023-05-14T09:56:55.599Z,10.65
2023-05-14T09:59:50.355Z,11.60
2023-05-14T10:02:46.335Z,15.48
2023-05-14T10:05:43.466Z,12.68
2023-05-14T10:08:42.755Z,10.38
2023-05-14T10:11:40.186Z,10.95
2023-05-14T10:14:50.808Z,9.50
2023-05-14T10:17:57.373Z,9.75
2023-05-14T10:21:02.344Z,7.88
2023-05-14T10:23:56.527Z,7.63
2023-05-14T10:26:51.155Z,7.60
2023-05-14T10:29:56.646Z,6.93
2023-05-14T10:32:50.894Z,6.88
2023-05-14T10:35:54.445Z,7.20
2023-05-14T10:38:56.627Z,7.20
2023-05-14T10:41:50.871Z,8.05
2023-05-14T10:44:59.612Z,9.15
2023-05-14T10:47:53.974Z,9.35
2023-05-14T10:50:52.441Z,8.55
2023-05-14T10:53:47.093Z,8.30
2023-05-14T10:56:41.308Z,8.20
2023-05-14T10:59:36.559Z,9.18
2023-05-14T11:02:48.773Z,8.95
2023-05-14T11:05:43.381Z,8.27
2023-05-14T11:08:38.368Z,8.43
2023-05-14T11:11:32.807Z,9.02
2023-05-14T11:14:27.044Z,8.68
2023-05-14T11:17:21.545Z,9.35
2023-05-14T11:20:16.271Z,8.07
2023-05-14T11:23:10.940Z,8.02
2023-05-14T11:26:05.201Z,7.78
2023-05-14T11:28:59.537Z,8.07
2023-05-14T11:31:53.963Z,7.60
2023-05-14T11:34:48.992Z,8.02
2023-05-14T11:37:43.342Z,7.65
2023-05-14T11:40:37.738Z,8.32
2023-05-14T11:43:32.114Z,8.88
2023-05-14T11:46:27.428Z,8.25
2023-05-14T11:49:27.162Z,8.15
2023-05-14T11:52:23.228Z,8.02
2023-05-14T11:55:17.485Z,8.65
2023-05-14T11:58:11.880Z,8.25
2023-05-14T12:01:06.233Z,7.68
2023-05-14T12:04:02.655Z,7.50
2023-05-14T12:06:59.355Z,7.65
2023-05-14T12:09:53.621Z,7.82
2023-05-14T12:12:49.988Z,7.88
2023-05-14T12:15:48.300Z,7.65
2023-05-14T12:18:42.554Z,7.13
2023-05-14T12:21:37.776Z,8.32
2023-05-14T12:24:31.916Z,7.13
2023-05-14T12:27:27.900Z,7.32
2023-05-14T12:30:22.841Z,7.30
2023-05-14T12:33:17.496Z,7.45
2023-05-14T12:36:21.094Z,6.47
2023-05-14T12:39:15.855Z,7.13
2023-05-14T12:42:10.071Z,6.68
2023-05-14T12:45:06.788Z,6.68
2023-05-14T12:48:01.123Z,6.72
2023-05-14T12:50:55.347Z,6.35
2023-05-14T12:53:49.894Z,6.78
2023-05-14T12:56:44.244Z,6.45
2023-05-14T12:59:38.557Z,6.47
2023-05-14T13:02:32.937Z,6.55
2023-05-14T13:05:27.223Z,5.97
2023-05-14T13:08:22.825Z,6.28
2023-05-14T13:11:17.318Z,5.82
2023-05-14T13:14:11.557Z,6.38
2023-05-14T13:17:07.187Z,6.00
2023-05-14T13:20:01.492Z,6.03
2023-05-14T13:22:55.711Z,5.65
2023-05-14T13:25:50.205Z,5.63
2023-05-14T13:28:44.702Z,6.10
2023-05-14T13:31:38.979Z,5.45
2023-05-14T13:34:33.171Z,6.22
2023-05-14T13:37:27.627Z,6.15
2023-05-14T13:40:22.193Z,5.50
2023-05-14T13:43:18.121Z,5.43
2023-05-14T13:46:12.412Z,4.85
2023-05-14T13:49:06.604Z,5.35
2023-05-14T13:52:00.789Z,5.63
2023-05-14T13:54:55.051Z,5.78
2023-05-14T13:57:49.220Z,5.53
2023-05-14T14:00:43.958Z,5.18
2023-05-14T14:03:38.135Z,4.63
2023-05-14T14:06:34.409Z,4.85
2023-05-14T14:09:28.579Z,5.55
2023-05-14T14:12:23.054Z,4.93
2023-05-14T14:15:17.333Z,5.38
2023-05-14T14:18:11.513Z,5.10
2023-05-14T14:21:05.896Z,5.55
2023-05-14T14:24:00.331Z,5.20
2023-05-14T14:26:54.493Z,4.93
2023-05-14T14:29:48.710Z,4.22
2023-05-14T14:32:46.751Z,4.40
2023-05-14T14:35:41.256Z,4.00
2023-05-14T14:38:35.371Z,3.95
2023-05-14T14:41:29.605Z,4.57
2023-05-14T14:44:23.746Z,4.22
2023-05-14T14:47:17.897Z,4.10
2023-05-14T14:50:12.390Z,3.92
2023-05-14T14:53:06.613Z,4.50
2023-05-14T14:56:01.890Z,4.20
2023-05-14T14:58:56.263Z,3.80
2023-05-14T15:01:51.877Z,4.25
2023-05-14T15:04:46.177Z,3.58
2023-05-14T15:07:42.604Z,4.15
2023-05-14T15:10:39.101Z,4.53
2023-05-14T15:13:33.326Z,3.75
2023-05-14T15:16:27.495Z,3.88
2023-05-14T15:19:23.147Z,4.40
2023-05-14T15:22:17.652Z,3.67
2023-05-14T15:25:12.073Z,3.92
2023-05-14T15:28:08.774Z,3.92
2023-05-14T15:31:03.828Z,3.17
2023-05-14T15:33:58.170Z,3.85
2023-05-14T15:36:52.502Z,4.00
2023-05-14T15:39:47.014Z,3.40
2023-05-14T15:42:44.970Z,4.07
2023-05-14T15:45:39.177Z,3.53
2023-05-14T15:48:33.440Z,3.78
2023-05-14T15:51:27.713Z,3.78
2023-05-14T15:54:21.994Z,3.38
2023-05-14T15:57:19.196Z,3.42
2023-05-14T16:00:14.717Z,3.50
2023-05-14T16:03:09.047Z,3.35
2023-05-14T16:06:03.309Z,2.80
2023-05-14T16:08:59.120Z,3.47
2023-05-14T16:11:53.306Z,3.60
2023-05-14T16:14:47.762Z,3.25
2023-05-14T16:17:42.095Z,3.17
2023-05-14T16:20:36.271Z,3.40
2023-05-14T16:23:30.428Z,2.92
2023-05-14T16:26:24.685Z,3.72
2023-05-14T16:29:18.880Z,3.65
2023-05-14T16:32:13.228Z,3.15
2023-05-14T16:35:07.869Z,3.25
2023-05-14T16:38:03.034Z,3.60
2023-05-14T16:40:57.643Z,3.55
2023-05-14T16:43:52.652Z,3.63
2023-05-14T16:46:46.880Z,3.10
2023-05-14T16:49:41.074Z,3.42
2023-05-14T16:52:35.780Z,3.33
2023-05-14T16:55:29.980Z,2.92
2023-05-14T16:58:24.110Z,2.90
2023-05-14T17:01:18.640Z,3.50
2023-05-14T17:04:13.069Z,2.80
2023-05-14T17:07:07.748Z,3.25
2023-05-14T17:10:02.069Z,2.83
2023-05-14T17:12:56.405Z,3.25
2023-05-14T17:15:50.640Z,2.97
2023-05-14T17:18:46.912Z,3.05
2023-05-14T17:21:41.176Z,3.05
2023-05-14T17:24:36.675Z,2.97
2023-05-14T17:27:34.293Z,2.55
2023-05-14T17:30:28.551Z,2.85
2023-05-14T17:33:22.833Z,3.30
2023-05-14T17:36:17.303Z,2.67
2023-05-14T17:39:11.753Z,2.42
2023-05-14T17:42:06.377Z,2.83
2023-05-14T17:45:00.906Z,3.00
2023-05-14T17:47:55.189Z,2.88
2023-05-14T17:50:49.470Z,3.33
2023-05-14T17:53:43.724Z,3.22
2023-05-14T17:56:38.145Z,2.90
2023-05-14T17:59:32.530Z,3.00
2023-05-14T18:02:26.986Z,3.10
2023-05-14T18:05:21.275Z,3.20
2023-05-14T18:08:16.008Z,2.90
2023-05-14T18:11:10.305Z,2.70
2023-05-14T18:14:04.976Z,3.25
2023-05-14T18:17:00.379Z,3.13
2023-05-14T18:19:54.636Z,2.63
2023-05-14T18:22:49.009Z,2.70
2023-05-14T18:25:43.252Z,2.85
2023-05-14T18:28:38.291Z,2.65
2023-05-14T18:31:32.620Z,2.30
2023-05-14T18:34:26.820Z,2.60
2023-05-14T18:37:20.982Z,2.78
2023-05-14T18:40:18.677Z,2.95
2023-05-14T18:43:14.598Z,3.40
2023-05-14T18:46:08.885Z,2.67
2023-05-14T18:49:03.164Z,2.67
2023-05-14T18:51:57.427Z,2.63
2023-05-14T18:54:52.810Z,2.85
2023-05-14T18:57:47.426Z,2.15
2023-05-14T19:00:41.865Z,3.10
2023-05-14T19:03:36.177Z,2.97
2023-05-14T19:06:30.552Z,2.55
2023-05-14T19:09:25.556Z,2.63
2023-05-14T19:12:20.964Z,2.10
2023-05-14T19:15:15.274Z,2.53
2023-05-14T19:18:09.504Z,2.90
2023-05-14T19:21:04.049Z,2.90
2023-05-14T19:23:58.354Z,2.88
2023-05-14T19:26:52.545Z,2.70
2023-05-14T19:29:46.952Z,2.88
2023-05-14T19:32:41.397Z,2.42
2023-05-14T19:35:35.930Z,2.65
2023-05-14T19:38:30.882Z,2.55
2023-05-14T19:41:25.050Z,2.50
2023-05-14T19:44:19.269Z,2.97
2023-05-14T19:47:13.652Z,2.72
2023-05-14T19:50:09.652Z,2.60
2023-05-14T19:53:05.250Z,2.45
2023-05-14T19:56:00.133Z,2.45
2023-05-14T19:58:54.298Z,2.92
2023-05-14T20:01:48.489Z,2.60
2023-05-14T20:04:43.727Z,2.40
2023-05-14T20:07:40.177Z,2.40
2023-05-14T20:10:34.596Z,2.78
2023-05-14T20:13:28.922Z,2.60
2023-05-14T20:16:24.598Z,2.50
2023-05-14T20:19:18.901Z,2.80
2023-05-14T20:22:13.186Z,2.42
2023-05-14T20:25:08.523Z,2.60
2023-05-14T20:28:02.829Z,2.47
2023-05-14T20:30:59.947Z,2.55
2023-05-14T20:33:54.144Z,3.15
2023-05-14T20:36:48.572Z,3.17
2023-05-14T20:39:42.681Z,2.47
2023-05-14T20:42:37.694Z,2.63
2023-05-14T20:45:31.815Z,2.38
2023-05-14T20:48:26.050Z,2.33
2023-05-14T20:51:20.315Z,2.35
2023-05-14T20:54:14.467Z,2.25
2023-05-14T20:57:08.654Z,2.80
2023-05-14T21:00:03.610Z,3.00
2023-05-14T21:02:58.830Z,2.33
2023-05-14T21:05:54.199Z,2.75
2023-05-14T21:08:48.372Z,2.63
2023-05-14T21:11:42.650Z,2.85
2023-05-14T21:14:37.087Z,2.78
2023-05-14T21:17:31.446Z,2.65
2023-05-14T21:20:25.760Z,2.70
2023-05-14T21:23:21.116Z,2.47
2023-05-14T21:26:15.349Z,2.17
2023-05-14T21:29:09.600Z,2.35
2023-05-14T21:32:04.196Z,2.90
2023-05-14T21:34:58.657Z,2.65
2023-05-14T21:37:53.425Z,2.92
2023-05-14T21:40:47.773Z,3.22
2023-05-14T21:43:42.180Z,2.92
2023-05-14T21:46:36.725Z,3.15
2023-05-14T21:49:31.012Z,2.40
2023-05-14T21:52:25.268Z,2.85
2023-05-14T21:55:19.601Z,3.03
2023-05-14T21:58:14.096Z,3.05
2023-05-14T22:01:10.140Z,3.40
2023-05-14T22:04:04.570Z,3.05
2023-05-14T22:06:59.009Z,2.75
2023-05-14T22:09:53.373Z,3.35
2023-05-14T22:12:47.809Z,3.13
2023-05-14T22:15:42.325Z,3.00
2023-05-14T22:18:37.739Z,2.95
2023-05-14T22:21:31.957Z,3.10
2023-05-14T22:24:26.221Z,3.22
2023-05-14T22:27:20.735Z,2.90
2023-05-14T22:30:15.373Z,3.20
2023-05-14T22:33:09.670Z,3.28
2023-05-14T22:36:04.053Z,3.05
2023-05-14T22:38:59.768Z,3.13
2023-05-14T22:41:56.456Z,3.17
2023-05-14T22:44:51.073Z,3.13
2023-05-14T22:47:45.533Z,2.58
2023-05-14T22:50:39.935Z,2.85
2023-05-14T22:53:34.188Z,2.72
2023-05-14T22:56:29.482Z,2.55
2023-05-14T22:59:25.978Z,2.65
2023-05-14T23:02:20.858Z,2.63
2023-05-14T23:05:15.483Z,2.47
2023-05-14T23:08:12.624Z,2.40
2023-05-14T23:11:07.506Z,2.42
2023-05-14T23:14:02.023Z,2.60
2023-05-14T23:16:56.286Z,2.92
2023-05-14T23:19:50.643Z,2.60
2023-05-14T23:22:45.083Z,2.80
2023-05-14T23:25:39.839Z,1.95
2023-05-14T23:28:34.037Z,2.10
2023-05-14T23:31:28.356Z,1.92
2023-05-14T23:34:23.346Z,2.53
2023-05-14T23:37:17.892Z,2.20
2023-05-14T23:40:12.445Z,2.00
2023-05-14T23:43:07.048Z,2.65
2023-05-14T23:46:01.787Z,2.35
2023-05-14T23:48:58.371Z,2.35
2023-05-14T23:51:52.927Z,2.47
2023-05-14T23:54:47.935Z,2.25
2023-05-14T23:57:42.419Z,2.17
